createdAt,value
2019-05-06T00:00:34.997Z,6.80
2019-05-06T00:03:05.073Z,6.70
2019-05-06T00:05:34.895Z,6.70
2019-05-06T00:08:04.391Z,6.70
2019-05-06T00:10:35.053Z,6.70
2019-05-06T00:13:04.732Z,6.70
2019-05-06T00:15:34.629Z,6.70
2019-05-06T00:18:04.469Z,6.70
2019-05-06T00:20:34.997Z,6.70
2019-05-06T00:23:10.138Z,6.70
2019-05-06T00:25:56.999Z,6.70
2019-05-06T00:28:34.156Z,6.70
2019-05-06T00:31:12.739Z,6.70
2019-05-06T00:33:36.105Z,6.70
2019-05-06T00:36:05.373Z,6.70
2019-05-06T00:38:34.973Z,6.70
2019-05-06T00:41:06.448Z,6.70
2019-05-06T00:43:35.743Z,6.70
2019-05-06T00:46:05.011Z,6.70
2019-05-06T00:48:35.058Z,6.80
2019-05-06T00:51:04.677Z,6.80
2019-05-06T00:53:36.975Z,6.80
2019-05-06T00:56:06.645Z,6.80
2019-05-06T00:58:35.891Z,6.90
2019-05-06T01:01:05.205Z,6.90
2019-05-06T01:03:34.878Z,6.90
2019-05-06T01:06:05.166Z,6.90
2019-05-06T01:08:35.029Z,7.00
2019-05-06T01:11:06.378Z,7.00
2019-05-06T01:13:44.100Z,7.10
2019-05-06T01:16:15.727Z,7.10
2019-05-06T01:18:45.597Z,7.20
2019-05-06T01:21:14.887Z,7.20
2019-05-06T01:23:45.950Z,7.20
2019-05-06T01:26:16.190Z,7.20
2019-05-06T01:28:46.647Z,7.20
2019-05-06T01:31:16.107Z,7.20
2019-05-06T01:33:45.515Z,7.20
2019-05-06T01:36:14.825Z,7.30
2019-05-06T01:39:04.419Z,7.30
2019-05-06T01:41:49.444Z,7.30
2019-05-06T01:44:21.071Z,7.30
2019-05-06T01:46:50.352Z,7.30
2019-05-06T01:49:19.661Z,7.30
2019-05-06T01:51:48.999Z,7.40
2019-05-06T01:54:18.236Z,7.40
2019-05-06T01:56:47.510Z,7.40
2019-05-06T01:59:16.797Z,7.40
2019-05-06T02:01:57.431Z,7.50
2019-05-06T02:04:17.082Z,7.50
2019-05-06T02:06:46.471Z,7.50
2019-05-06T02:09:17.863Z,7.50
2019-05-06T02:11:48.356Z,7.50
2019-05-06T02:14:18.279Z,7.40
2019-05-06T02:16:47.572Z,7.40
2019-05-06T02:19:16.926Z,7.40
2019-05-06T02:21:57.201Z,7.40
2019-05-06T02:24:33.704Z,7.40
2019-05-06T02:27:04.497Z,7.50
2019-05-06T02:29:36.347Z,7.50
2019-05-06T02:32:45.242Z,7.50
2019-05-06T02:35:20.314Z,7.60
2019-05-06T02:37:49.672Z,7.60
2019-05-06T02:40:25.582Z,7.60
2019-05-06T02:42:55.476Z,7.70
2019-05-06T02:45:25.393Z,7.70
2019-05-06T02:48:23.041Z,7.70
2019-05-06T02:51:03.666Z,7.80
2019-05-06T02:53:33.823Z,7.80
2019-05-06T02:56:04.365Z,7.80
2019-05-06T02:58:34.068Z,7.90
2019-05-06T03:01:03.912Z,7.90
2019-05-06T03:03:34.108Z,7.90
2019-05-06T03:06:04.419Z,8.00
2019-05-06T03:08:34.582Z,8.00
2019-05-06T03:11:04.511Z,8.10
2019-05-06T03:13:34.411Z,8.10
2019-05-06T03:16:05.770Z,8.10
2019-05-06T03:18:35.273Z,8.20
2019-05-06T03:21:29.818Z,8.20
2019-05-06T03:24:07.377Z,8.20
2019-05-06T03:26:35.531Z,8.30
2019-05-06T03:29:04.801Z,8.30
2019-05-06T03:31:36.418Z,8.30
2019-05-06T03:34:27.872Z,8.40
2019-05-06T03:36:40.624Z,8.40
2019-05-06T03:39:08.513Z,8.40
2019-05-06T03:41:37.783Z,8.50
2019-05-06T03:44:07.122Z,8.50
2019-05-06T03:46:54.401Z,8.50
2019-05-06T03:49:25.643Z,8.50
2019-05-06T03:51:56.486Z,8.50
2019-05-06T03:54:26.147Z,8.50
2019-05-06T03:56:56.740Z,8.60
2019-05-06T03:59:26.036Z,8.60
2019-05-06T04:01:55.475Z,8.60
2019-05-06T04:04:24.790Z,8.60
2019-05-06T04:06:54.693Z,8.70
2019-05-06T04:09:24.288Z,8.70
2019-05-06T04:11:54.738Z,8.70
2019-05-06T04:14:25.776Z,8.70
2019-05-06T04:17:03.235Z,8.70
2019-05-06T04:19:43.576Z,8.70
2019-05-06T04:22:43.796Z,8.70
2019-05-06T04:25:37.097Z,8.70
2019-05-06T04:28:27.436Z,8.80
2019-05-06T04:30:57.129Z,8.80
2019-05-06T04:33:27.209Z,8.80
2019-05-06T04:35:56.570Z,8.80
2019-05-06T04:38:25.813Z,8.80
2019-05-06T04:40:55.185Z,8.80
2019-05-06T04:43:26.967Z,8.80
2019-05-06T04:45:55.659Z,8.80
2019-05-06T04:48:25.059Z,8.90
2019-05-06T04:50:54.954Z,8.90
2019-05-06T04:53:27.122Z,9.00
2019-05-06T04:55:55.819Z,9.00
2019-05-06T04:58:25.143Z,9.00
2019-05-06T05:00:55.448Z,9.00
2019-05-06T05:03:24.822Z,9.00
2019-05-06T05:05:54.189Z,9.00
2019-05-06T05:08:36.810Z,9.10
2019-05-06T05:11:42.594Z,9.10
2019-05-06T05:14:32.809Z,9.10
2019-05-06T05:17:08.472Z,9.20
2019-05-06T05:19:37.974Z,9.20
2019-05-06T05:22:07.609Z,9.20
2019-05-06T05:24:38.454Z,9.20
2019-05-06T05:27:07.969Z,9.30
2019-05-06T05:29:37.325Z,9.30
2019-05-06T05:32:06.618Z,9.30
2019-05-06T05:34:39.779Z,9.40
2019-05-06T05:37:06.860Z,9.40
2019-05-06T05:39:36.414Z,9.30
2019-05-06T05:42:24.908Z,9.40
2019-05-06T05:44:55.200Z,9.40
2019-05-06T05:47:24.544Z,9.40
2019-05-06T05:50:06.898Z,9.40
2019-05-06T05:52:37.406Z,9.40
2019-05-06T05:55:09.082Z,9.40
2019-05-06T05:57:38.295Z,9.40
2019-05-06T06:00:12.786Z,9.40
2019-05-06T06:02:43.672Z,9.40
2019-05-06T06:05:13.334Z,9.40
2019-05-06T06:07:42.678Z,9.40
2019-05-06T06:10:47.053Z,9.40
2019-05-06T06:13:16.262Z,9.30
2019-05-06T06:15:56.678Z,9.30
2019-05-06T06:18:47.151Z,9.20
2019-05-06T06:21:42.770Z,9.20
2019-05-06T06:24:22.572Z,9.10
2019-05-06T06:26:53.117Z,9.10
2019-05-06T06:29:22.862Z,9.00
2019-05-06T06:32:07.616Z,9.00
2019-05-06T06:34:42.722Z,9.00
2019-05-06T06:37:35.779Z,8.90
2019-05-06T06:40:06.124Z,8.90
2019-05-06T06:42:35.432Z,8.90
2019-05-06T06:45:04.897Z,8.90
2019-05-06T06:47:34.217Z,8.90
2019-05-06T06:50:03.716Z,9.00
2019-05-06T06:52:34.623Z,9.00
2019-05-06T06:55:04.027Z,9.00
2019-05-06T06:57:52.531Z,9.00
2019-05-06T07:00:37.696Z,9.00
2019-05-06T07:03:16.780Z,9.00
2019-05-06T07:06:02.417Z,9.00
2019-05-06T07:08:37.583Z,9.10
2019-05-06T07:11:05.049Z,9.10
2019-05-06T07:13:34.838Z,9.10
2019-05-06T07:16:04.261Z,9.10
2019-05-06T07:18:33.605Z,9.20
2019-05-06T07:21:17.999Z,9.20
2019-05-06T07:23:47.366Z,9.30
2019-05-06T07:26:18.348Z,9.30
2019-05-06T07:28:47.795Z,9.30
2019-05-06T07:31:22.267Z,9.30
2019-05-06T07:33:48.135Z,9.40
2019-05-06T07:36:20.057Z,9.50
2019-05-06T07:38:52.739Z,9.60
2019-05-06T07:41:28.525Z,9.60
2019-05-06T07:44:16.831Z,9.60
2019-05-06T07:47:03.348Z,9.70
2019-05-06T07:49:32.932Z,9.70
2019-05-06T07:52:03.211Z,9.80
2019-05-06T07:54:32.967Z,9.90
2019-05-06T07:57:02.649Z,10.00
2019-05-06T07:59:35.251Z,10.10
2019-05-06T08:02:04.666Z,10.20
2019-05-06T08:04:33.967Z,10.20
2019-05-06T08:07:03.384Z,10.30
2019-05-06T08:09:32.875Z,10.40
2019-05-06T08:12:02.777Z,10.50
2019-05-06T08:14:43.252Z,10.60
2019-05-06T08:17:42.725Z,10.70
2019-05-06T08:20:13.161Z,10.80
2019-05-06T08:23:01.982Z,10.90
2019-05-06T08:25:42.318Z,11.00
2019-05-06T08:28:13.061Z,11.20
2019-05-06T08:30:43.177Z,11.40
2019-05-06T08:33:15.009Z,11.60
2019-05-06T08:35:44.380Z,11.80
2019-05-06T08:38:13.637Z,11.90
2019-05-06T08:40:43.267Z,12.00
2019-05-06T08:43:13.251Z,12.10
2019-05-06T08:45:42.683Z,12.30
2019-05-06T08:48:13.016Z,12.30
2019-05-06T08:51:02.790Z,12.40
2019-05-06T08:53:36.571Z,12.40
2019-05-06T08:56:06.957Z,12.50
2019-05-06T08:58:45.885Z,12.50
2019-05-06T09:01:43.578Z,12.40
2019-05-06T09:04:16.121Z,12.50
2019-05-06T09:06:44.096Z,12.40
2019-05-06T09:09:13.576Z,12.50
2019-05-06T09:11:44.718Z,12.40
2019-05-06T09:14:14.306Z,12.30
2019-05-06T09:16:44.309Z,12.30
2019-05-06T09:19:14.201Z,12.30
2019-05-06T09:21:46.195Z,12.30
2019-05-06T09:24:14.646Z,12.30
2019-05-06T09:26:55.026Z,12.30
2019-05-06T09:29:52.436Z,12.30
2019-05-06T09:32:36.270Z,12.30
2019-05-06T09:35:06.951Z,12.20
2019-05-06T09:37:36.340Z,12.10
2019-05-06T09:40:06.313Z,12.10
2019-05-06T09:42:35.823Z,12.10
2019-05-06T09:45:05.364Z,12.00
2019-05-06T09:48:03.733Z,12.00
2019-05-06T09:50:45.481Z,12.00
2019-05-06T09:53:17.560Z,12.20
2019-05-06T09:56:04.610Z,12.30
2019-05-06T09:58:36.782Z,12.50
2019-05-06T10:01:07.189Z,12.70
2019-05-06T10:03:36.511Z,13.10
2019-05-06T10:06:05.822Z,13.30
2019-05-06T10:08:35.230Z,13.60
2019-05-06T10:11:09.008Z,13.90
2019-05-06T10:13:38.487Z,14.20
2019-05-06T10:16:07.860Z,14.50
2019-05-06T10:18:37.309Z,14.70
2019-05-06T10:21:12.440Z,14.80
2019-05-06T10:23:42.324Z,14.90
2019-05-06T10:26:12.961Z,15.00
2019-05-06T10:28:55.391Z,15.00
2019-05-06T10:31:24.815Z,14.90
2019-05-06T10:34:14.233Z,14.90
2019-05-06T10:37:11.643Z,14.80
2019-05-06T10:39:35.969Z,14.80
2019-05-06T10:42:13.059Z,14.70
2019-05-06T10:45:01.814Z,14.70
2019-05-06T10:47:33.067Z,14.80
2019-05-06T10:50:02.767Z,14.80
2019-05-06T10:52:51.818Z,14.90
2019-05-06T10:55:23.157Z,15.10
2019-05-06T10:57:53.104Z,15.20
2019-05-06T11:00:23.218Z,15.40
2019-05-06T11:03:22.428Z,15.40
2019-05-06T11:05:53.603Z,15.50
2019-05-06T11:08:23.698Z,15.60
2019-05-06T11:10:53.738Z,15.60
2019-05-06T11:13:24.531Z,15.60
2019-05-06T11:15:55.600Z,15.60
2019-05-06T11:18:25.270Z,15.70
2019-05-06T11:20:56.311Z,15.80
2019-05-06T11:23:25.814Z,15.90
2019-05-06T11:25:55.308Z,16.20
2019-05-06T11:28:42.931Z,16.40
2019-05-06T11:31:28.714Z,16.70
2019-05-06T11:34:22.077Z,17.00
2019-05-06T11:36:53.690Z,17.10
2019-05-06T11:39:23.572Z,17.40
2019-05-06T11:42:14.522Z,17.60
2019-05-06T11:44:24.301Z,17.70
2019-05-06T11:46:53.635Z,17.90
2019-05-06T11:49:23.430Z,18.10
2019-05-06T11:51:55.952Z,18.20
2019-05-06T11:54:27.628Z,18.10
2019-05-06T11:56:58.483Z,18.10
2019-05-06T11:59:28.325Z,18.00
2019-05-06T12:02:04.026Z,18.10
2019-05-06T12:04:35.022Z,18.10
2019-05-06T12:07:11.050Z,18.20
2019-05-06T12:09:35.617Z,18.20
2019-05-06T12:12:05.105Z,18.10
2019-05-06T12:14:34.411Z,18.00
2019-05-06T12:17:03.878Z,17.90
2019-05-06T12:19:33.319Z,18.00
2019-05-06T12:22:02.697Z,18.00
2019-05-06T12:24:32.157Z,18.00
2019-05-06T12:27:03.277Z,18.00
2019-05-06T12:29:32.595Z,17.90
2019-05-06T12:32:12.854Z,17.90
2019-05-06T12:34:42.985Z,17.90
2019-05-06T12:37:14.170Z,17.90
2019-05-06T12:39:49.402Z,17.90
2019-05-06T12:42:27.948Z,18.00
2019-05-06T12:45:32.840Z,18.20
2019-05-06T12:48:20.395Z,18.40
2019-05-06T12:50:52.340Z,18.40
2019-05-06T12:53:23.156Z,18.30
2019-05-06T12:55:54.962Z,18.30
2019-05-06T12:58:24.398Z,18.50
2019-05-06T13:00:54.368Z,18.60
2019-05-06T13:03:23.925Z,18.70
2019-05-06T13:05:53.333Z,18.70
2019-05-06T13:08:28.282Z,18.90
2019-05-06T13:10:53.824Z,18.90
2019-05-06T13:13:23.163Z,19.10
2019-05-06T13:15:52.925Z,19.10
2019-05-06T13:18:23.223Z,19.10
2019-05-06T13:20:53.471Z,19.10
2019-05-06T13:23:37.314Z,18.90
2019-05-06T13:26:09.303Z,18.90
2019-05-06T13:28:42.504Z,18.70
2019-05-06T13:31:20.425Z,18.50
2019-05-06T13:33:55.089Z,18.30
2019-05-06T13:36:25.679Z,17.90
2019-05-06T13:39:09.465Z,17.80
2019-05-06T13:41:26.397Z,17.60
2019-05-06T13:44:02.575Z,17.60
2019-05-06T13:46:35.018Z,17.50
2019-05-06T13:49:36.489Z,17.50
2019-05-06T13:52:07.734Z,17.30
2019-05-06T13:54:42.156Z,17.20
2019-05-06T13:57:14.882Z,17.10
2019-05-06T13:59:46.827Z,16.80
2019-05-06T14:02:44.304Z,16.70
2019-05-06T14:05:13.882Z,16.60
2019-05-06T14:07:43.545Z,16.40
2019-05-06T14:10:14.236Z,16.20
2019-05-06T14:12:43.534Z,16.10
2019-05-06T14:15:13.184Z,16.00
2019-05-06T14:17:42.639Z,15.90
2019-05-06T14:20:13.395Z,15.80
2019-05-06T14:22:43.776Z,15.60
2019-05-06T14:25:36.425Z,15.50
2019-05-06T14:28:24.789Z,15.40
2019-05-06T14:31:03.955Z,15.30
2019-05-06T14:33:33.532Z,15.10
2019-05-06T14:36:03.306Z,15.00
2019-05-06T14:38:33.676Z,14.90
2019-05-06T14:41:09.487Z,14.80
2019-05-06T14:43:39.646Z,14.70
2019-05-06T14:46:09.067Z,14.60
2019-05-06T14:48:38.463Z,14.60
2019-05-06T14:51:07.858Z,14.60
2019-05-06T14:53:37.280Z,14.60
2019-05-06T14:56:18.865Z,14.60
2019-05-06T14:59:07.239Z,14.60
2019-05-06T15:01:45.586Z,14.50
2019-05-06T15:04:12.993Z,14.50
2019-05-06T15:06:42.715Z,14.60
2019-05-06T15:09:14.425Z,14.60
2019-05-06T15:11:43.927Z,14.70
2019-05-06T15:14:13.371Z,14.70
2019-05-06T15:16:42.984Z,14.80
2019-05-06T15:19:12.948Z,14.90
2019-05-06T15:21:43.139Z,15.10
2019-05-06T15:24:13.792Z,15.10
2019-05-06T15:26:43.574Z,15.20
2019-05-06T15:29:12.932Z,15.20
2019-05-06T15:32:04.395Z,15.20
2019-05-06T15:34:47.979Z,15.20
2019-05-06T15:37:24.576Z,15.20
2019-05-06T15:39:53.800Z,15.10
2019-05-06T15:42:24.003Z,15.10
2019-05-06T15:44:53.438Z,15.00
2019-05-06T15:47:22.858Z,15.00
2019-05-06T15:49:53.179Z,14.90
2019-05-06T15:52:23.514Z,14.80
2019-05-06T15:54:53.697Z,14.70
2019-05-06T15:57:23.168Z,14.60
2019-05-06T15:59:53.112Z,14.50
2019-05-06T16:02:24.004Z,14.50
2019-05-06T16:04:53.309Z,14.40
2019-05-06T16:07:25.302Z,14.30
2019-05-06T16:09:55.422Z,14.30
2019-05-06T16:12:24.686Z,14.30
2019-05-06T16:14:55.784Z,14.20
2019-05-06T16:17:25.063Z,14.20
2019-05-06T16:19:54.327Z,14.10
2019-05-06T16:22:23.677Z,14.10
2019-05-06T16:24:57.649Z,14.00
2019-05-06T16:27:27.007Z,14.00
2019-05-06T16:29:57.135Z,13.90
2019-05-06T16:32:26.490Z,13.90
2019-05-06T16:34:55.787Z,13.80
2019-05-06T16:37:25.118Z,13.80
2019-05-06T16:39:54.746Z,13.80
2019-05-06T16:42:27.363Z,13.70
2019-05-06T16:44:56.829Z,13.70
2019-05-06T16:47:44.403Z,13.70
2019-05-06T16:50:15.073Z,13.70
2019-05-06T16:52:45.502Z,13.60
2019-05-06T16:55:24.305Z,13.60
2019-05-06T16:58:03.422Z,13.50
2019-05-06T17:00:34.678Z,13.40
2019-05-06T17:03:18.762Z,13.40
2019-05-06T17:06:15.943Z,13.40
2019-05-06T17:08:46.657Z,13.30
2019-05-06T17:11:26.896Z,13.20
2019-05-06T17:13:46.985Z,13.10
2019-05-06T17:16:16.260Z,13.00
2019-05-06T17:18:45.509Z,13.00
2019-05-06T17:21:14.919Z,12.90
2019-05-06T17:23:44.237Z,12.90
2019-05-06T17:26:13.585Z,12.80
2019-05-06T17:29:02.581Z,12.80
2019-05-06T17:31:56.676Z,12.70
2019-05-06T17:34:31.177Z,12.60
2019-05-06T17:37:07.834Z,12.50
2019-05-06T17:39:37.278Z,12.40
2019-05-06T17:42:06.523Z,12.30
2019-05-06T17:44:35.886Z,12.30
2019-05-06T17:47:12.795Z,12.20
2019-05-06T17:49:42.342Z,12.20
2019-05-06T17:52:30.060Z,12.20
2019-05-06T17:55:02.913Z,12.10
2019-05-06T17:57:33.150Z,12.00
2019-05-06T18:00:04.187Z,11.90
2019-05-06T18:02:33.508Z,11.90
2019-05-06T18:05:03.009Z,11.80
2019-05-06T18:07:32.787Z,11.70
2019-05-06T18:10:04.962Z,11.70
2019-05-06T18:12:34.330Z,11.70
2019-05-06T18:15:03.670Z,11.60
2019-05-06T18:17:33.574Z,11.60
2019-05-06T18:20:03.452Z,11.50
2019-05-06T18:22:33.069Z,11.50
2019-05-06T18:25:02.399Z,11.40
2019-05-06T18:27:32.660Z,11.40
2019-05-06T18:30:12.382Z,11.40
2019-05-06T18:32:36.932Z,11.30
2019-05-06T18:35:06.483Z,11.30
2019-05-06T18:37:36.047Z,11.30
2019-05-06T18:40:05.376Z,11.20
2019-05-06T18:42:34.772Z,11.20
2019-05-06T18:45:04.237Z,11.20
2019-05-06T18:47:33.512Z,11.10
2019-05-06T18:50:02.800Z,11.10
2019-05-06T18:52:32.708Z,11.10
2019-05-06T18:55:02.201Z,11.10
2019-05-06T18:57:32.796Z,11.10
2019-05-06T19:00:03.125Z,11.10
2019-05-06T19:02:32.824Z,11.10
2019-05-06T19:05:09.331Z,11.10
2019-05-06T19:07:38.508Z,11.00
2019-05-06T19:10:32.752Z,11.00
2019-05-06T19:13:02.019Z,11.00
2019-05-06T19:15:33.502Z,11.00
2019-05-06T19:18:02.868Z,11.00
2019-05-06T19:20:33.819Z,11.00
2019-05-06T19:23:03.430Z,11.00
2019-05-06T19:25:34.624Z,10.90
2019-05-06T19:28:03.817Z,10.90
2019-05-06T19:30:33.109Z,10.80
2019-05-06T19:33:03.185Z,10.80
2019-05-06T19:35:36.830Z,10.80
2019-05-06T19:38:05.252Z,10.70
2019-05-06T19:40:34.716Z,10.70
2019-05-06T19:43:03.993Z,10.60
2019-05-06T19:45:34.612Z,10.50
2019-05-06T19:48:04.053Z,10.50
2019-05-06T19:50:33.252Z,10.40
2019-05-06T19:53:02.525Z,10.40
2019-05-06T19:55:31.883Z,10.30
2019-05-06T19:58:02.343Z,10.30
2019-05-06T20:00:32.584Z,10.20
2019-05-06T20:03:02.778Z,10.20
2019-05-06T20:05:38.999Z,10.20
2019-05-06T20:08:15.064Z,10.10
2019-05-06T20:10:59.693Z,10.10
2019-05-06T20:13:29.067Z,10.00
2019-05-06T20:15:58.483Z,9.90
2019-05-06T20:18:27.835Z,9.90
2019-05-06T20:20:57.127Z,9.90
2019-05-06T20:23:26.525Z,9.80
2019-05-06T20:25:55.914Z,9.80
2019-05-06T20:28:25.338Z,9.80
2019-05-06T20:30:55.790Z,9.80
2019-05-06T20:33:24.983Z,9.80
2019-05-06T20:35:54.366Z,9.80
2019-05-06T20:38:23.676Z,9.80
2019-05-06T20:40:52.933Z,9.80
2019-05-06T20:43:24.075Z,9.80
2019-05-06T20:45:55.186Z,9.80
2019-05-06T20:48:24.470Z,9.80
2019-05-06T20:50:53.721Z,9.80
2019-05-06T20:53:23.353Z,9.80
2019-05-06T20:55:53.381Z,9.70
2019-05-06T20:58:23.139Z,9.70
2019-05-06T21:00:52.794Z,9.70
2019-05-06T21:03:22.353Z,9.70
2019-05-06T21:05:52.019Z,9.60
2019-05-06T21:08:22.111Z,9.60
2019-05-06T21:10:52.959Z,9.60
2019-05-06T21:13:31.416Z,9.50
2019-05-06T21:15:53.290Z,9.50
2019-05-06T21:18:22.969Z,9.40
2019-05-06T21:20:52.883Z,9.40
2019-05-06T21:23:22.792Z,9.30
2019-05-06T21:25:52.440Z,9.30
2019-05-06T21:28:23.737Z,9.30
2019-05-06T21:30:54.560Z,9.20
2019-05-06T21:33:23.843Z,9.20
2019-05-06T21:35:53.172Z,9.10
2019-05-06T21:38:22.823Z,9.10
2019-05-06T21:40:52.578Z,9.10
2019-05-06T21:43:22.789Z,9.00
2019-05-06T21:45:53.951Z,9.00
2019-05-06T21:48:23.049Z,9.00
2019-05-06T21:50:52.386Z,8.90
2019-05-06T21:53:23.018Z,8.90
2019-05-06T21:55:52.636Z,8.90
2019-05-06T21:58:23.184Z,8.80
2019-05-06T22:01:02.157Z,8.80
2019-05-06T22:03:32.721Z,8.80
2019-05-06T22:06:02.416Z,8.70
2019-05-06T22:08:32.841Z,8.70
2019-05-06T22:11:03.149Z,8.70
2019-05-06T22:13:33.283Z,8.60
2019-05-06T22:16:04.884Z,8.60
2019-05-06T22:18:34.293Z,8.60
2019-05-06T22:21:22.897Z,8.60
2019-05-06T22:24:04.676Z,8.50
2019-05-06T22:26:34.208Z,8.50
2019-05-06T22:29:03.647Z,8.50
2019-05-06T22:31:33.231Z,8.40
2019-05-06T22:34:03.009Z,8.40
2019-05-06T22:36:32.483Z,8.40
2019-05-06T22:39:02.466Z,8.30
2019-05-06T22:41:32.584Z,8.30
2019-05-06T22:44:13.216Z,8.30
2019-05-06T22:46:34.310Z,8.30
2019-05-06T22:49:03.823Z,8.30
2019-05-06T22:51:33.361Z,8.30
2019-05-06T22:54:03.006Z,8.30
2019-05-06T22:56:32.569Z,8.20
2019-05-06T22:59:03.307Z,8.30
2019-05-06T23:01:48.246Z,8.20
2019-05-06T23:04:18.686Z,8.30
2019-05-06T23:06:47.918Z,8.20
2019-05-06T23:09:17.358Z,8.20
2019-05-06T23:11:46.632Z,8.20
2019-05-06T23:14:28.060Z,8.20
2019-05-06T23:16:47.070Z,8.20
2019-05-06T23:19:16.271Z,8.20
2019-05-06T23:21:45.454Z,8.30
2019-05-06T23:24:14.700Z,8.30
2019-05-06T23:26:43.974Z,8.20
2019-05-06T23:29:13.276Z,8.30
2019-05-06T23:31:43.758Z,8.20
2019-05-06T23:34:13.001Z,8.20
2019-05-06T23:37:19.539Z,8.20
2019-05-06T23:40:26.019Z,8.20
2019-05-06T23:43:33.063Z,8.20
2019-05-06T23:46:37.789Z,8.20
2019-05-06T23:49:42.746Z,8.10
2019-05-06T23:52:47.647Z,8.10
2019-05-06T23:55:52.429Z,8.10
2019-05-06T23:58:22.337Z,8.10
